Time;durP1;ratioP1;P1;durP2;ratioP2;P2;SDS_P1;SDS_P2;PMS_P1;PMS_P2;Temp;Humidity;BMP_temperature;BMP_pressure;BME280_temperature;BME280_humidity;BME280_pressure;Samples;Min_cycle;Max_cycle;Signal;HPM_P1;HPM_P2
2021/12/10 00:00:53;;;;;;;6.70;2.13;;;19.30;60.80;;;;;;4496959;31;20156;-77
2021/12/10 00:03:27;;;;;;;4.32;1.80;;;19.30;60.80;;;;;;4497451;31;20128;-77
2021/12/10 00:05:58;;;;;;;4.55;2.00;;;19.30;60.80;;;;;;4495666;31;20163;-77
2021/12/10 00:08:28;;;;;;;3.30;1.63;;;19.30;60.80;;;;;;4497168;31;20183;-77
2021/12/10 00:10:57;;;;;;;4.80;1.73;;;19.30;60.80;;;;;;4494447;31;20306;-77
2021/12/10 00:13:23;;;;;;;4.10;1.70;;;19.30;60.90;;;;;;4496519;31;20138;-77
2021/12/10 00:15:53;;;;;;;3.92;1.83;;;19.30;60.90;;;;;;4495574;31;20077;-77
2021/12/10 00:18:19;;;;;;;4.85;1.95;;;19.30;60.90;;;;;;4496896;31;20159;-77
2021/12/10 00:20:48;;;;;;;3.67;1.63;;;19.20;60.80;;;;;;4495308;31;20120;-77
2021/12/10 00:23:19;;;;;;;4.10;2.00;;;19.20;60.90;;;;;;4495235;31;20217;-77
2021/12/10 00:25:50;;;;;;;3.88;1.70;;;19.20;60.80;;;;;;4496652;31;20148;-77
2021/12/10 00:28:26;;;;;;;3.63;1.52;;;19.20;60.90;;;;;;4496050;31;20144;-76
2021/12/10 00:31:02;;;;;;;4.70;1.85;;;19.20;60.90;;;;;;4494241;31;20506;-78
2021/12/10 00:33:34;;;;;;;7.30;2.20;;;19.20;60.90;;;;;;4503302;31;20159;-78
2021/12/10 00:36:00;;;;;;;3.22;1.80;;;19.10;60.90;;;;;;4497798;31;20136;-77
2021/12/10 00:38:26;;;;;;;3.00;1.65;;;19.10;60.90;;;;;;4483844;31;20209;-77
2021/12/10 00:40:52;;;;;;;6.13;2.10;;;19.10;60.90;;;;;;4495883;31;20136;-77
2021/12/10 00:43:18;;;;;;;3.75;1.60;;;19.10;60.80;;;;;;4495149;31;20678;-77
2021/12/10 00:45:44;;;;;;;5.18;1.80;;;19.10;60.90;;;;;;4494620;31;20174;-77
2021/12/10 00:48:10;;;;;;;5.60;1.88;;;19.10;61.00;;;;;;4495500;31;20144;-76
2021/12/10 00:50:47;;;;;;;5.22;1.80;;;19.10;60.90;;;;;;4495080;31;20117;-76
2021/12/10 00:53:16;;;;;;;2.95;1.70;;;19.00;61.70;;;;;;4495817;31;20243;-76
2021/12/10 00:55:42;;;;;;;4.88;1.77;;;19.00;60.90;;;;;;4497384;32;20125;-76
2021/12/10 00:58:08;;;;;;;5.32;1.73;;;19.00;60.90;;;;;;4495385;32;20125;-76
2021/12/10 01:00:38;;;;;;;4.47;1.83;;;19.00;60.90;;;;;;4495797;32;20184;-76
2021/12/10 01:03:07;;;;;;;4.60;1.75;;;19.00;60.90;;;;;;4498444;31;20243;-76
2021/12/10 01:05:35;;;;;;;3.95;1.77;;;19.00;61.00;;;;;;4499180;31;20665;-77
2021/12/10 01:08:01;;;;;;;3.35;1.45;;;19.00;61.00;;;;;;4500606;31;20139;-77
2021/12/10 01:10:35;;;;;;;3.75;1.83;;;19.00;61.00;;;;;;4499150;31;20121;-76
2021/12/10 01:13:04;;;;;;;3.60;1.75;;;19.00;60.90;;;;;;4500541;31;20132;-77
2021/12/10 01:26:26;;;;;;;3.95;1.48;;;18.90;61.00;;;;;;4499058;31;20191;-77
2021/12/10 01:28:57;;;;;;;4.72;1.50;;;18.90;61.00;;;;;;4500231;31;20135;-76
2021/12/10 01:31:24;;;;;;;3.15;1.80;;;18.90;61.00;;;;;;4497952;31;20144;-77
2021/12/10 01:33:52;;;;;;;3.47;1.70;;;18.90;61.00;;;;;;4499965;31;20128;-77
2021/12/10 01:36:18;;;;;;;3.65;1.77;;;18.90;61.00;;;;;;4501633;31;20140;-77
2021/12/10 01:38:46;;;;;;;4.72;1.67;;;18.90;61.00;;;;;;4516377;31;20601;-76
2021/12/10 01:41:16;;;;;;;3.05;1.42;;;18.80;61.00;;;;;;4501334;31;20336;-76
2021/12/10 01:43:43;;;;;;;4.00;1.60;;;18.80;61.00;;;;;;4513688;31;20132;-76
2021/12/10 01:46:13;;;;;;;3.20;1.63;;;18.80;61.00;;;;;;4516011;31;20154;-76
2021/12/10 01:48:50;;;;;;;3.80;1.70;;;18.80;61.00;;;;;;4514434;31;20154;-76
2021/12/10 01:51:21;;;;;;;3.72;1.58;;;18.80;61.00;;;;;;4515924;31;20626;-76
2021/12/10 01:53:50;;;;;;;3.53;1.50;;;18.80;61.00;;;;;;4514701;31;20124;-76
2021/12/10 01:56:22;;;;;;;3.03;1.30;;;18.70;61.00;;;;;;4515235;31;20143;-76
2021/12/10 01:58:50;;;;;;;3.05;1.50;;;18.70;61.00;;;;;;4515553;31;20172;-76
2021/12/10 02:01:31;;;;;;;2.15;1.40;;;18.70;61.00;;;;;;4513550;31;20128;-77
2021/12/10 02:04:00;;;;;;;3.72;1.65;;;18.70;61.00;;;;;;4515522;31;20124;-76
2021/12/10 02:06:27;;;;;;;3.30;1.48;;;18.70;61.00;;;;;;4514534;31;20120;-76
2021/12/10 02:08:53;;;;;;;2.40;1.35;;;18.70;61.00;;;;;;4514322;31;20136;-77
2021/12/10 02:11:19;;;;;;;3.92;1.30;;;18.70;61.00;;;;;;4513934;31;20866;-76
2021/12/10 02:13:46;;;;;;;2.80;1.55;;;18.70;61.00;;;;;;4500155;31;20142;-76
2021/12/10 02:16:13;;;;;;;2.75;1.40;;;18.70;61.00;;;;;;4513836;31;20147;-76
2021/12/10 02:18:39;;;;;;;2.72;1.40;;;18.70;61.00;;;;;;4514161;31;20132;-77
2021/12/10 02:21:09;;;;;;;3.70;1.38;;;18.70;61.00;;;;;;4514150;31;20186;-76
2021/12/10 02:23:39;;;;;;;2.38;1.45;;;18.70;61.00;;;;;;4514281;31;20187;-76
2021/12/10 02:26:08;;;;;;;4.00;1.48;;;18.70;61.00;;;;;;4514982;31;20120;-77
2021/12/10 02:28:35;;;;;;;2.47;1.45;;;18.60;61.00;;;;;;4514162;31;20498;-76
2021/12/10 02:31:01;;;;;;;3.50;1.40;;;18.60;61.00;;;;;;4512927;31;20132;-76
2021/12/10 02:33:29;;;;;;;2.38;1.30;;;18.60;61.10;;;;;;4515232;31;20175;-77
2021/12/10 02:35:56;;;;;;;2.50;1.40;;;18.60;61.00;;;;;;4513656;31;20132;-76
2021/12/10 02:38:22;;;;;;;4.03;1.45;;;18.60;61.10;;;;;;4515300;31;20143;-77
2021/12/10 02:40:51;;;;;;;3.13;1.70;;;18.60;61.10;;;;;;4512701;31;20206;-76
2021/12/10 02:43:19;;;;;;;3.42;1.50;;;18.60;61.10;;;;;;4514895;31;20147;-76
2021/12/10 02:45:48;;;;;;;3.47;1.50;;;18.60;61.10;;;;;;4514735;31;20168;-76
2021/12/10 02:48:14;;;;;;;2.53;1.30;;;18.50;61.00;;;;;;4513931;31;20124;-76
2021/12/10 02:50:40;;;;;;;3.97;1.30;;;18.50;61.00;;;;;;4515054;31;20178;-77
2021/12/10 02:53:08;;;;;;;3.10;1.60;;;18.50;61.00;;;;;;4512223;31;20158;-76
2021/12/10 02:55:35;;;;;;;2.72;1.45;;;18.50;61.00;;;;;;4513877;31;20139;-76
2021/12/10 02:58:06;;;;;;;2.65;1.50;;;18.50;61.10;;;;;;4512592;31;20139;-76
2021/12/10 03:00:37;;;;;;;4.20;1.23;;;18.50;61.10;;;;;;4513558;31;20259;-76
2021/12/10 03:03:03;;;;;;;2.55;1.30;;;18.50;61.00;;;;;;4514482;31;20221;-76
2021/12/10 03:05:29;;;;;;;2.67;1.30;;;18.50;61.10;;;;;;4513624;31;20124;-77
2021/12/10 03:07:55;;;;;;;2.30;1.20;;;18.50;61.10;;;;;;4502806;31;20147;-78
2021/12/10 03:10:27;;;;;;;3.40;1.30;;;18.50;61.10;;;;;;4497048;31;20201;-77
2021/12/10 03:12:54;;;;;;;2.33;1.10;;;18.50;61.10;;;;;;4500181;31;20222;-77
2021/12/10 03:15:22;;;;;;;2.50;1.20;;;18.40;61.10;;;;;;4497384;31;20160;-76
2021/12/10 03:17:48;;;;;;;2.03;1.40;;;18.40;61.10;;;;;;4499813;31;20144;-76
2021/12/10 03:20:21;;;;;;;3.40;1.33;;;18.40;61.10;;;;;;4484117;31;20548;-77
2021/12/10 03:22:47;;;;;;;2.97;1.30;;;18.40;61.10;;;;;;4496858;31;20136;-77
2021/12/10 03:25:16;;;;;;;3.63;1.20;;;18.40;61.10;;;;;;4496982;31;20183;-77
2021/12/10 03:27:43;;;;;;;3.95;1.30;;;18.40;61.10;;;;;;4471002;31;20504;-78
2021/12/10 03:30:28;;;;;;;2.42;1.15;;;18.40;61.10;;;;;;4483126;31;20253;-77
2021/12/10 03:32:55;;;;;;;2.97;1.20;;;18.40;61.10;;;;;;4499685;31;20099;-77
2021/12/10 03:35:28;;;;;;;3.08;1.33;;;18.40;61.10;;;;;;4495673;31;20132;-77
2021/12/10 03:37:55;;;;;;;2.85;1.27;;;18.40;61.10;;;;;;4499196;31;20147;-76
2021/12/10 03:40:22;;;;;;;3.85;1.30;;;18.40;61.10;;;;;;4497358;31;20132;-76
2021/12/10 03:42:50;;;;;;;3.28;1.20;;;18.40;61.10;;;;;;4498156;31;20264;-76
2021/12/10 03:45:17;;;;;;;1.88;1.10;;;18.40;61.10;;;;;;4496892;31;20127;-76
2021/12/10 03:47:44;;;;;;;2.28;1.40;;;18.30;61.90;;;;;;4499751;31;20148;-76
2021/12/10 03:50:12;;;;;;;4.47;1.23;;;18.30;61.00;;;;;;4497362;31;20140;-76
2021/12/10 03:52:38;;;;;;;1.98;1.15;;;18.30;61.00;;;;;;4495295;31;20548;-76
2021/12/10 03:55:06;;;;;;;2.55;1.00;;;18.30;61.00;;;;;;4498402;31;20620;-76
2021/12/10 03:57:32;;;;;;;2.33;1.20;;;18.30;61.00;;;;;;4495181;31;20143;-76
2021/12/10 03:59:58;;;;;;;3.08;1.30;;;18.30;61.10;;;;;;4496167;31;20163;-77
2021/12/10 04:02:26;;;;;;;3.22;1.10;;;18.30;61.90;;;;;;4496744;31;20140;-76
2021/12/10 04:04:51;;;;;;;2.50;1.20;;;18.30;61.00;;;;;;4500127;31;20193;-76
2021/12/10 04:07:26;;;;;;;2.97;1.25;;;18.30;61.00;;;;;;4482961;31;20169;-76
2021/12/10 04:09:54;;;;;;;2.90;1.20;;;18.30;61.00;;;;;;4494825;31;20124;-76
2021/12/10 04:12:21;;;;;;;2.05;1.10;;;18.30;61.00;;;;;;4499208;31;20146;-76
2021/12/10 04:14:48;;;;;;;2.13;1.00;;;18.30;61.00;;;;;;4496119;31;20124;-76
2021/12/10 04:17:14;;;;;;;3.17;1.35;;;18.30;61.00;;;;;;4496014;31;20159;-76
2021/12/10 04:19:44;;;;;;;3.10;1.20;;;18.30;61.00;;;;;;4495539;31;20135;-76
2021/12/10 04:22:10;;;;;;;2.30;1.13;;;18.30;61.00;;;;;;4496511;31;20128;-76
2021/12/10 04:24:38;;;;;;;2.13;1.27;;;18.20;61.00;;;;;;4496200;31;20139;-76
2021/12/10 04:27:07;;;;;;;2.08;1.20;;;18.20;61.00;;;;;;4495904;31;20125;-76
2021/12/10 04:29:34;;;;;;;2.38;1.20;;;18.20;60.90;;;;;;4498936;31;20128;-76
2021/12/10 04:32:04;;;;;;;2.85;1.50;;;18.20;60.90;;;;;;4496482;31;20128;-76
2021/12/10 04:34:30;;;;;;;1.75;0.95;;;18.20;61.00;;;;;;4483733;31;20148;-76
2021/12/10 04:37:00;;;;;;;2.42;1.40;;;18.20;61.00;;;;;;4497288;31;20156;-76
2021/12/10 04:39:26;;;;;;;2.03;1.27;;;18.20;61.00;;;;;;4496388;31;20241;-76
2021/12/10 04:41:52;;;;;;;2.75;1.25;;;18.20;61.00;;;;;;4470761;31;20128;-76
2021/12/10 04:44:18;;;;;;;1.60;1.00;;;18.20;61.80;;;;;;4494653;31;20140;-77
2021/12/10 04:46:45;;;;;;;3.53;1.20;;;18.20;61.00;;;;;;4498307;31;20120;-76
2021/12/10 04:49:13;;;;;;;1.98;1.02;;;18.10;60.90;;;;;;4494602;31;20120;-76
2021/12/10 04:51:51;;;;;;;2.58;1.15;;;18.10;60.90;;;;;;4496848;31;20211;-76
2021/12/10 04:54:19;;;;;;;2.33;1.20;;;18.10;60.90;;;;;;4496516;31;20097;-76
2021/12/10 04:56:46;;;;;;;2.17;1.30;;;18.10;60.90;;;;;;4495995;31;20139;-76
2021/12/10 04:59:16;;;;;;;2.65;1.13;;;18.10;60.90;;;;;;4497215;31;20275;-76
2021/12/10 05:01:43;;;;;;;1.83;1.13;;;18.10;60.90;;;;;;4496259;32;20134;-76
2021/12/10 05:04:11;;;;;;;1.73;1.05;;;18.10;60.90;;;;;;4497343;31;20623;-82
2021/12/10 05:06:38;;;;;;;2.63;1.17;;;18.10;60.90;;;;;;4497041;31;20206;-74
2021/12/10 05:09:06;;;;;;;1.95;1.05;;;18.10;61.00;;;;;;4495412;31;20136;-74
2021/12/10 05:11:32;;;;;;;2.50;1.25;;;18.10;61.00;;;;;;4509505;31;20135;-75
2021/12/10 05:13:59;;;;;;;5.32;1.23;;;18.10;61.00;;;;;;4482941;31;20143;-78
2021/12/10 05:16:27;;;;;;;2.88;1.10;;;18.10;61.00;;;;;;4496842;31;20164;-73
2021/12/10 05:18:59;;;;;;;3.55;1.10;;;18.10;61.10;;;;;;4494308;31;20117;-76
2021/12/10 05:21:29;;;;;;;2.90;1.10;;;18.10;61.00;;;;;;4482504;31;20171;-75
2021/12/10 05:23:55;;;;;;;2.28;1.13;;;18.00;61.10;;;;;;4496081;31;20136;-72
2021/12/10 05:26:21;;;;;;;3.92;1.50;;;18.00;61.10;;;;;;4498998;31;20525;-74
2021/12/10 05:28:47;;;;;;;5.20;1.40;;;18.00;61.10;;;;;;4504109;31;20132;-72
2021/12/10 05:31:13;;;;;;;2.55;1.25;;;18.00;61.10;;;;;;4499516;31;20198;-73
2021/12/10 05:33:39;;;;;;;2.25;1.00;;;18.00;61.10;;;;;;4504266;31;20171;-75
2021/12/10 05:36:07;;;;;;;2.95;1.30;;;18.00;61.10;;;;;;4503802;31;20469;-74
2021/12/10 05:38:35;;;;;;;1.60;1.00;;;18.00;61.20;;;;;;4502192;31;20145;-74
2021/12/10 05:41:05;;;;;;;2.63;1.20;;;18.00;61.20;;;;;;4495942;31;20162;-74
2021/12/10 05:43:32;;;;;;;2.08;1.20;;;18.00;61.20;;;;;;4502571;31;20132;-75
2021/12/10 05:45:58;;;;;;;2.97;1.30;;;18.00;61.20;;;;;;4503183;31;20139;-75
2021/12/10 05:48:24;;;;;;;3.55;1.00;;;18.00;61.30;;;;;;4502789;31;20136;-74
2021/12/10 05:50:51;;;;;;;1.95;1.10;;;18.00;61.30;;;;;;4506222;31;20148;-76
2021/12/10 05:53:17;;;;;;;2.22;1.23;;;18.00;61.30;;;;;;4505576;31;20182;-76
2021/12/10 05:55:44;;;;;;;2.13;1.08;;;18.00;61.30;;;;;;4506392;31;20185;-76
2021/12/10 05:58:10;;;;;;;2.50;1.42;;;18.00;61.30;;;;;;4504718;31;20147;-75
2021/12/10 06:00:46;;;;;;;3.58;1.27;;;18.00;61.30;;;;;;4497487;31;20210;-77
2021/12/10 06:03:12;;;;;;;3.55;1.35;;;18.00;61.30;;;;;;4497974;31;20132;-73
2021/12/10 06:05:40;;;;;;;2.42;0.90;;;18.00;61.30;;;;;;4498201;31;20187;-75
2021/12/10 06:08:07;;;;;;;2.20;1.02;;;18.00;61.30;;;;;;4498585;31;20145;-74
2021/12/10 06:10:35;;;;;;;4.97;1.20;;;17.90;62.10;;;;;;4497073;31;20132;-74
2021/12/10 06:13:01;;;;;;;3.58;1.50;;;17.90;61.30;;;;;;4485322;31;20302;-74
2021/12/10 06:15:27;;;;;;;3.20;1.60;;;17.90;61.30;;;;;;4497694;31;20125;-74
2021/12/10 06:17:54;;;;;;;2.88;1.10;;;17.90;61.30;;;;;;4498931;31;20148;-74
2021/12/10 06:20:25;;;;;;;2.53;1.23;;;17.90;61.30;;;;;;4498303;31;20294;-74
2021/12/10 06:22:52;;;;;;;2.70;1.17;;;17.90;61.30;;;;;;4498259;31;20128;-75
2021/12/10 06:25:18;;;;;;;2.70;1.30;;;17.90;61.30;;;;;;4498164;31;20151;-74
2021/12/10 06:27:44;;;;;;;2.05;1.15;;;17.90;61.30;;;;;;4497190;31;20140;-75
2021/12/10 06:30:20;;;;;;;1.33;1.10;;;17.90;61.30;;;;;;4499290;31;20151;-74
2021/12/10 06:32:47;;;;;;;2.28;1.17;;;17.90;61.20;;;;;;4497834;31;20686;-74
2021/12/10 06:35:14;;;;;;;4.55;1.33;;;17.90;61.20;;;;;;4497998;31;20124;-74
2021/12/10 06:37:41;;;;;;;2.83;1.17;;;17.90;61.30;;;;;;4498445;31;20164;-74
2021/12/10 06:40:13;;;;;;;2.45;1.00;;;17.90;61.20;;;;;;4497939;31;20124;-74
2021/12/10 06:42:39;;;;;;;1.92;1.13;;;17.80;61.20;;;;;;4499427;31;20209;-74
2021/12/10 06:45:08;;;;;;;2.42;1.10;;;17.80;61.10;;;;;;4497062;31;20271;-74
2021/12/10 06:47:34;;;;;;;2.45;1.02;;;17.80;61.20;;;;;;4497637;31;20128;-75
2021/12/10 06:50:00;;;;;;;1.48;1.10;;;17.80;61.20;;;;;;4497736;31;20253;-74
2021/12/10 06:52:26;;;;;;;3.08;1.30;;;17.80;61.10;;;;;;4496533;31;20267;-74
2021/12/10 06:54:52;;;;;;;1.77;1.10;;;17.80;61.10;;;;;;4499252;31;20137;-74
2021/12/10 06:57:18;;;;;;;1.60;1.10;;;17.80;61.10;;;;;;4497391;31;20117;-74
2021/12/10 06:59:44;;;;;;;2.15;1.00;;;17.80;61.10;;;;;;4484849;31;20142;-74
2021/12/10 07:02:14;;;;;;;2.20;1.08;;;17.80;61.10;;;;;;4483415;31;20282;-74
2021/12/10 07:04:41;;;;;;;1.80;1.27;;;17.80;61.10;;;;;;4497413;31;20179;-74
2021/12/10 07:07:10;;;;;;;2.28;1.27;;;17.80;61.10;;;;;;4497492;31;20088;-74
2021/12/10 07:09:38;;;;;;;1.55;0.95;;;17.80;61.10;;;;;;4496377;31;20144;-75
2021/12/10 07:12:05;;;;;;;1.70;1.00;;;17.80;61.10;;;;;;4497686;31;20147;-74
2021/12/10 07:14:31;;;;;;;2.22;1.33;;;17.80;61.10;;;;;;4495976;31;20124;-74
2021/12/10 07:16:59;;;;;;;2.33;1.20;;;17.70;61.00;;;;;;4497498;31;20217;-74
2021/12/10 07:19:27;;;;;;;3.55;1.20;;;17.70;61.10;;;;;;4496234;31;20274;-74
2021/12/10 07:21:53;;;;;;;1.35;1.05;;;17.70;61.00;;;;;;4498110;31;20188;-74
2021/12/10 07:24:20;;;;;;;1.80;1.08;;;17.70;61.00;;;;;;4498058;31;20650;-74
2021/12/10 07:26:47;;;;;;;1.80;1.15;;;17.70;61.00;;;;;;4496456;31;20121;-74
2021/12/10 07:29:14;;;;;;;2.25;1.10;;;17.70;61.00;;;;;;4471462;31;20144;-74
2021/12/10 07:31:43;;;;;;;1.67;1.10;;;17.70;61.00;;;;;;4496886;31;20538;-74
2021/12/10 07:34:10;;;;;;;1.77;1.20;;;17.70;61.10;;;;;;4498518;31;20155;-74
2021/12/10 07:36:38;;;;;;;2.15;1.10;;;17.70;61.10;;;;;;4497070;31;20124;-74
2021/12/10 07:39:05;;;;;;;2.05;1.30;;;17.70;61.00;;;;;;4496953;31;20243;-75
2021/12/10 07:41:33;;;;;;;1.42;1.00;;;17.60;61.00;;;;;;4483775;31;20154;-74
2021/12/10 07:43:58;;;;;;;2.10;1.13;;;17.60;61.00;;;;;;4495894;31;20109;-74
2021/12/10 07:46:28;;;;;;;1.38;0.93;;;17.60;61.00;;;;;;4497003;31;20613;-74
2021/12/10 07:48:55;;;;;;;1.75;1.02;;;17.60;61.00;;;;;;4495765;31;20147;-74
2021/12/10 07:51:26;;;;;;;2.00;1.20;;;17.60;61.00;;;;;;4496922;31;20136;-74
2021/12/10 07:53:57;;;;;;;2.33;1.20;;;17.60;61.00;;;;;;4497428;31;20139;-74
2021/12/10 07:56:26;;;;;;;1.90;1.20;;;17.60;61.00;;;;;;4496067;31;20142;-74
2021/12/10 07:58:54;;;;;;;1.17;0.90;;;17.60;61.10;;;;;;4499511;31;20291;-74
2021/12/10 08:01:24;;;;;;;2.45;1.30;;;17.60;61.00;;;;;;4501877;31;20528;-74
2021/12/10 08:03:51;;;;;;;1.50;1.00;;;17.60;61.00;;;;;;4510146;31;20132;-74
2021/12/10 08:06:18;;;;;;;1.92;0.95;;;17.60;61.10;;;;;;4511437;31;20682;-74
2021/12/10 08:08:44;;;;;;;1.70;0.98;;;17.60;61.00;;;;;;4512218;31;20124;-74
2021/12/10 08:11:11;;;;;;;2.00;0.90;;;17.60;61.00;;;;;;4512283;31;20146;-73
2021/12/10 08:13:37;;;;;;;2.10;1.05;;;17.60;61.00;;;;;;4510975;31;20121;-74
2021/12/10 08:16:03;;;;;;;1.67;1.00;;;17.50;61.00;;;;;;4512693;31;20577;-74
2021/12/10 08:18:29;;;;;;;1.48;1.00;;;17.50;61.00;;;;;;4512128;31;20141;-74
2021/12/10 08:20:56;;;;;;;1.70;1.15;;;17.50;61.00;;;;;;4513868;31;20254;-74
2021/12/10 08:23:22;;;;;;;1.90;1.00;;;17.50;61.00;;;;;;4511419;31;20191;-74
2021/12/10 08:25:49;;;;;;;1.48;1.30;;;17.50;61.00;;;;;;4499063;31;20447;-71
2021/12/10 08:28:15;;;;;;;3.03;1.88;;;17.50;61.10;;;;;;4513034;31;20270;-70
2021/12/10 08:30:42;;;;;;;5.57;2.75;;;17.50;60.80;;;;;;4512383;31;20124;-72
2021/12/10 08:33:13;;;;;;;3.70;2.42;;;17.40;59.80;;;;;;4513289;31;20148;-71
2021/12/10 08:35:42;;;;;;;4.80;2.30;;;17.40;59.10;;;;;;4512019;31;20128;-74
2021/12/10 08:38:08;;;;;;;6.18;2.42;;;17.40;59.40;;;;;;4513596;31;20128;-73
2021/12/10 08:40:37;;;;;;;2.85;2.00;;;17.30;59.60;;;;;;4511019;31;20136;-72
2021/12/10 08:43:05;;;;;;;3.67;2.33;;;17.30;59.70;;;;;;4513486;31;20250;-76
2021/12/10 08:45:32;;;;;;;5.05;1.92;;;17.30;59.70;;;;;;4511733;31;20347;-74
2021/12/10 08:47:59;;;;;;;4.50;2.10;;;17.30;59.70;;;;;;4512428;31;20120;-75
2021/12/10 08:50:27;;;;;;;2.72;1.85;;;17.30;59.70;;;;;;4513324;31;20128;-73
2021/12/10 08:53:06;;;;;;;2.95;1.63;;;17.30;59.90;;;;;;4511772;31;20152;-74
2021/12/10 08:55:34;;;;;;;4.07;1.40;;;17.30;59.70;;;;;;4512238;31;20453;-72
2021/12/10 08:58:00;;;;;;;2.05;1.40;;;17.30;59.90;;;;;;4511345;31;20194;-74
2021/12/10 09:00:28;;;;;;;4.18;1.05;;;17.40;59.90;;;;;;4512822;31;20129;-73
2021/12/10 09:02:59;;;;;;;2.60;1.30;;;17.40;59.90;;;;;;4513259;31;20244;-72
2021/12/10 09:05:27;;;;;;;4.18;1.30;;;17.50;59.90;;;;;;4504686;31;20120;-77
2021/12/10 09:07:54;;;;;;;1.75;1.02;;;17.60;59.90;;;;;;4499956;31;20532;-78
2021/12/10 09:10:25;;;;;;;4.88;1.17;;;17.60;59.80;;;;;;4481868;31;20171;-76
2021/12/10 09:12:52;;;;;;;1.92;1.02;;;17.80;59.80;;;;;;4496706;31;20140;-78
2021/12/10 09:15:21;;;;;;;2.53;1.10;;;17.90;59.50;;;;;;4495719;31;20148;-75
2021/12/10 09:17:49;;;;;;;2.15;1.20;;;18.00;59.40;;;;;;4496034;31;20120;-76
2021/12/10 09:20:25;;;;;;;2.78;1.00;;;18.10;59.10;;;;;;4491409;31;20251;-75
2021/12/10 09:22:53;;;;;;;2.80;1.40;;;18.20;59.00;;;;;;4495550;31;20182;-75
2021/12/10 09:25:19;;;;;;;1.80;0.95;;;18.30;58.80;;;;;;4498272;31;20124;-76
2021/12/10 09:27:46;;;;;;;3.90;0.77;;;18.50;58.60;;;;;;4508122;31;20217;-74
2021/12/10 09:30:14;;;;;;;3.95;1.00;;;18.50;58.30;;;;;;4502073;31;20268;-75
2021/12/10 09:32:40;;;;;;;1.77;0.80;;;18.60;58.10;;;;;;4498447;31;20096;-75
2021/12/10 09:35:08;;;;;;;1.48;0.80;;;18.80;57.90;;;;;;4484818;31;20541;-78
2021/12/10 09:37:38;;;;;;;1.15;0.73;;;18.80;57.60;;;;;;4499067;31;20128;-76
2021/12/10 09:40:13;;;;;;;1.25;0.70;;;19.00;57.40;;;;;;4498706;31;20124;-77
2021/12/10 09:42:43;;;;;;;1.73;0.70;;;19.10;57.20;;;;;;4500158;31;20536;-75
2021/12/10 09:45:13;;;;;;;1.10;0.70;;;19.20;57.00;;;;;;4497819;31;20125;-75
2021/12/10 09:47:40;;;;;;;3.70;0.80;;;19.30;57.60;;;;;;4499239;31;20136;-75
2021/12/10 09:50:10;;;;;;;2.30;0.70;;;19.40;56.40;;;;;;4498680;31;20124;-74
2021/12/10 09:52:37;;;;;;;3.55;0.85;;;19.50;56.10;;;;;;4497063;31;20160;-77
2021/12/10 09:55:05;;;;;;;1.85;0.70;;;19.60;55.80;;;;;;4497113;31;20160;-75
2021/12/10 09:57:34;;;;;;;1.98;0.52;;;19.80;55.60;;;;;;4497201;31;20144;-75
2021/12/10 10:00:04;;;;;;;1.58;0.73;;;19.90;55.30;;;;;;4499611;31;20298;-76
2021/12/10 10:02:32;;;;;;;1.20;0.60;;;20.00;55.10;;;;;;4499391;31;20139;-75
2021/12/10 10:04:58;;;;;;;2.00;0.60;;;20.10;54.80;;;;;;4484742;31;20537;-76
2021/12/10 10:07:28;;;;;;;3.95;0.60;;;20.20;54.60;;;;;;4485587;31;20124;-76
2021/12/10 10:09:59;;;;;;;2.50;0.70;;;20.30;54.40;;;;;;4496967;31;20202;-73
2021/12/10 10:12:31;;;;;;;2.08;0.50;;;20.40;54.10;;;;;;4498658;31;20139;-74
2021/12/10 10:14:58;;;;;;;0.90;0.57;;;20.60;53.90;;;;;;4498526;31;20132;-83
2021/12/10 10:17:25;;;;;;;0.82;0.60;;;20.70;53.80;;;;;;4499340;31;20149;-86
2021/12/10 10:19:53;;;;;;;2.15;0.98;;;20.80;53.70;;;;;;4499139;31;20198;-72
2021/12/10 10:22:24;;;;;;;2.15;1.02;;;20.90;53.70;;;;;;4501586;31;20132;-76
2021/12/10 10:24:52;;;;;;;1.85;1.00;;;20.90;53.00;;;;;;4499464;31;20238;-78
2021/12/10 10:27:25;;;;;;;4.80;1.35;;;21.00;52.80;;;;;;4497148;31;20116;-76
2021/12/10 10:29:53;;;;;;;;;;;21.10;52.80;;;;;;4500139;31;20222;-85
2021/12/10 10:32:24;;;;;;;1.77;0.82;;;21.10;52.90;;;;;;4498656;31;20037;-80
2021/12/10 10:34:58;;;;;;;1.42;0.80;;;21.20;52.60;;;;;;4499007;31;20591;-81
2021/12/10 10:37:24;;;;;;;1.77;0.55;;;21.20;52.60;;;;;;4499213;31;20463;-79
2021/12/10 10:39:51;;;;;;;3.70;0.60;;;21.30;52.60;;;;;;4497386;31;20132;-78
2021/12/10 10:42:24;;;;;;;2.75;0.68;;;21.40;52.50;;;;;;4499284;31;20143;-76
2021/12/10 10:44:51;;;;;;;3.28;0.77;;;21.40;52.40;;;;;;4496676;31;20286;-77
2021/12/10 10:47:22;;;;;;;1.38;0.60;;;21.50;52.40;;;;;;4499039;31;20170;-81
2021/12/10 10:50:00;;;;;;;1.92;0.70;;;21.50;52.40;;;;;;4498441;31;20100;-75
2021/12/10 10:52:31;;;;;;;1.38;0.50;;;21.50;52.40;;;;;;4496725;31;20158;-76
2021/12/10 10:55:12;;;;;;;1.45;0.63;;;21.60;52.30;;;;;;4499013;31;20139;-74
2021/12/10 10:58:02;;;;;;;1.25;0.47;;;21.60;52.40;;;;;;4496839;31;20121;-79
2021/12/10 11:00:59;;;;;;;0.68;0.47;;;21.60;52.60;;;;;;4498531;31;20178;-79
2021/12/10 11:03:37;;;;;;;1.67;0.60;;;21.50;52.60;;;;;;4497979;31;20141;-84
2021/12/10 11:06:08;;;;;;;8.00;2.05;;;21.40;52.90;;;;;;4497103;31;20128;-81
2021/12/10 11:08:41;;;;;;;1.08;0.60;;;21.30;53.20;;;;;;4498937;31;20618;-80
2021/12/10 11:11:26;;;;;;;0.87;0.50;;;21.20;53.40;;;;;;4497213;31;20140;-76
2021/12/10 11:14:06;;;;;;;1.25;0.60;;;21.20;53.70;;;;;;4497414;31;20136;-80
2021/12/10 11:16:35;;;;;;;1.27;0.50;;;21.10;54.10;;;;;;4499158;31;20129;-79
2021/12/10 11:19:09;;;;;;;2.08;0.63;;;21.00;54.20;;;;;;4497150;31;20139;-75
2021/12/10 11:21:42;;;;;;;1.63;0.80;;;20.90;54.40;;;;;;4497470;31;20140;-75
2021/12/10 11:24:10;;;;;;;4.35;0.60;;;20.90;54.60;;;;;;4498061;31;20093;-75
2021/12/10 11:27:03;;;;;;;2.33;0.60;;;20.80;54.60;;;;;;4497702;31;20641;-74
2021/12/10 11:30:07;;;;;;;2.80;0.60;;;20.80;54.80;;;;;;4498783;31;20151;-75
2021/12/10 11:32:54;;;;;;;0.70;0.40;;;20.80;54.90;;;;;;4493787;31;20171;-75
2021/12/10 11:35:33;;;;;;;1.45;0.50;;;20.80;55.00;;;;;;4495963;31;20164;-75
2021/12/10 11:38:08;;;;;;;1.83;0.70;;;20.80;55.10;;;;;;4498408;31;20131;-76
2021/12/10 11:40:42;;;;;;;2.58;0.32;;;20.80;55.20;;;;;;4497368;31;20447;-75
2021/12/10 11:43:19;;;;;;;1.83;0.47;;;20.70;55.20;;;;;;4497752;31;20120;-77
2021/12/10 11:48:50;;;;;;;1.80;0.80;;;20.70;55.40;;;;;;4479221;31;20136;-81
2021/12/10 11:51:21;;;;;;;2.08;0.60;;;20.70;55.40;;;;;;4499202;31;20170;-78
2021/12/10 11:54:03;;;;;;;1.65;0.52;;;20.70;55.40;;;;;;4497134;31;20168;-80
2021/12/10 11:56:32;;;;;;;2.92;0.60;;;20.70;55.50;;;;;;4507981;31;20129;-81
2021/12/10 11:59:16;;;;;;;1.88;0.57;;;20.70;55.50;;;;;;4497539;31;20181;-80
2021/12/10 12:01:50;;;;;;;1.10;0.57;;;20.70;55.50;;;;;;4498621;31;20120;-78
2021/12/10 12:04:26;;;;;;;1.05;0.57;;;20.70;55.50;;;;;;4497466;31;20151;-83
2021/12/10 12:07:21;;;;;;;1.00;0.57;;;20.70;55.50;;;;;;4503825;31;20145;-79
2021/12/10 12:09:55;;;;;;;1.42;0.60;;;20.70;55.60;;;;;;4496021;31;20541;-79
2021/12/10 12:12:26;;;;;;;0.80;0.50;;;20.70;55.60;;;;;;4510628;31;20136;-75
2021/12/10 12:15:18;;;;;;;1.13;0.38;;;20.70;55.70;;;;;;4506862;31;20133;-75
2021/12/10 12:17:50;;;;;;;1.33;0.50;;;20.70;55.70;;;;;;4496607;31;20314;-77
2021/12/10 12:20:31;;;;;;;1.02;0.60;;;20.70;55.70;;;;;;4510111;31;20132;-76
2021/12/10 12:26:03;;;;;;;0.98;0.50;;;20.70;55.70;;;;;;4498577;31;20850;-79
2021/12/10 12:28:29;;;;;;;1.00;0.50;;;20.70;55.70;;;;;;4499273;31;20115;-79
2021/12/10 12:31:04;;;;;;;1.52;0.50;;;20.70;55.70;;;;;;4494967;31;20258;-79
2021/12/10 12:33:49;;;;;;;5.15;0.55;;;20.70;55.80;;;;;;4497006;31;20140;-78
2021/12/10 12:36:17;;;;;;;1.08;0.70;;;20.60;55.90;;;;;;4496301;31;20249;-78
2021/12/10 12:38:46;;;;;;;8.98;0.77;;;20.60;56.00;;;;;;4496383;31;20141;-79
2021/12/10 12:41:20;;;;;;;1.73;0.80;;;20.50;55.90;;;;;;4496000;31;20149;-79
2021/12/10 12:44:06;;;;;;;2.17;0.50;;;20.40;55.90;;;;;;4495425;31;20151;-80
2021/12/10 12:46:32;;;;;;;1.20;0.85;;;20.30;56.20;;;;;;4497772;31;20168;-79
2021/12/10 12:49:02;;;;;;;3.25;0.70;;;20.30;56.40;;;;;;4495309;31;20128;-76
2021/12/10 12:51:28;;;;;;;4.78;0.70;;;20.20;56.70;;;;;;4497375;31;20135;-78
2021/12/10 12:53:55;;;;;;;2.22;0.95;;;20.10;56.90;;;;;;4500990;31;20167;-77
2021/12/10 12:56:26;;;;;;;2.35;0.65;;;20.10;57.30;;;;;;4510345;31;20150;-78
2021/12/10 12:59:11;;;;;;;1.70;0.90;;;20.00;57.50;;;;;;4514410;31;20132;-77
2021/12/10 13:01:48;;;;;;;2.88;1.00;;;20.00;57.80;;;;;;4513398;31;20152;-80
2021/12/10 13:04:21;;;;;;;6.13;1.15;;;20.00;58.00;;;;;;4505519;31;20144;-79
2021/12/10 13:06:50;;;;;;;6.85;1.10;;;20.00;58.20;;;;;;4499742;31;20611;-79
2021/12/10 13:09:22;;;;;;;2.72;0.73;;;20.00;58.30;;;;;;4497997;31;20125;-81
2021/12/10 13:12:05;;;;;;;5.25;1.00;;;20.10;58.30;;;;;;4502289;31;20125;-79
2021/12/10 13:14:46;;;;;;;1.33;0.68;;;20.10;58.30;;;;;;4498511;31;20293;-80
2021/12/10 13:17:18;;;;;;;3.53;0.90;;;20.10;58.20;;;;;;4499742;31;20117;-79